sensor_id;sensor_type;location;lat;lon;timestamp;pressure;altitude;pressure_sealevel;temperature;humidity
30073;BME280;16897;52.422;13.678;2023-05-20T00:03:25;102264.66;;;15.05;38.35
30073;BME280;16897;52.422;13.678;2023-05-20T00:07:27;102264.13;;;14.99;38.29
30073;BME280;16897;52.422;13.678;2023-05-20T00:11:29;102274.63;;;14.99;38.36
30073;BME280;16897;52.422;13.678;2023-05-20T00:15:32;102266.09;;;14.94;38.30
30073;BME280;16897;52.422;13.678;2023-05-20T00:19:34;102258.50;;;14.88;38.40
30073;BME280;16897;52.422;13.678;2023-05-20T00:23:35;102244.03;;;14.79;38.57
30073;BME280;16897;52.422;13.678;2023-05-20T00:27:37;102264.84;;;14.83;38.51
30073;BME280;16897;52.422;13.678;2023-05-20T00:31:39;102247.16;;;14.68;38.56
30073;BME280;16897;52.422;13.678;2023-05-20T00:35:41;102248.16;;;14.66;38.59
30073;BME280;16897;52.422;13.678;2023-05-20T00:39:42;102226.63;;;14.38;38.69
30073;BME280;16897;52.422;13.678;2023-05-20T00:43:44;102250.56;;;14.51;38.75
30073;BME280;16897;52.422;13.678;2023-05-20T00:47:45;102252.34;;;14.51;38.71
30073;BME280;16897;52.422;13.678;2023-05-20T00:51:47;102267.03;;;14.56;38.78
30073;BME280;16897;52.422;13.678;2023-05-20T00:55:49;102253.41;;;14.47;38.82
30073;BME280;16897;52.422;13.678;2023-05-20T00:59:50;102247.59;;;14.40;38.81
30073;BME280;16897;52.422;13.678;2023-05-20T01:03:52;102216.94;;;14.22;38.87
30073;BME280;16897;52.422;13.678;2023-05-20T01:07:54;102226.72;;;14.37;38.92
30073;BME280;16897;52.422;13.678;2023-05-20T01:12:07;102229.41;;;14.35;39.09
30073;BME280;16897;52.422;13.678;2023-05-20T01:16:12;102222.63;;;14.31;38.97
30073;BME280;16897;52.422;13.678;2023-05-20T01:20:15;102235.31;;;14.41;39.06
30073;BME280;16897;52.422;13.678;2023-05-20T01:24:19;102211.38;;;14.28;39.16
30073;BME280;16897;52.422;13.678;2023-05-20T01:28:20;102232.75;;;14.39;39.14
30073;BME280;16897;52.422;13.678;2023-05-20T01:32:33;102240.38;;;14.45;39.18
30073;BME280;16897;52.422;13.678;2023-05-20T01:36:38;102232.53;;;14.44;39.33
30073;BME280;16897;52.422;13.678;2023-05-20T01:40:40;102217.91;;;14.38;39.38
30073;BME280;16897;52.422;13.678;2023-05-20T01:44:43;102186.53;;;14.16;39.29
30073;BME280;16897;52.422;13.678;2023-05-20T01:48:45;102218.06;;;14.35;39.27
30073;BME280;16897;52.422;13.678;2023-05-20T01:52:46;102216.38;;;14.34;39.37
30073;BME280;16897;52.422;13.678;2023-05-20T01:56:48;102230.13;;;14.39;39.38
30073;BME280;16897;52.422;13.678;2023-05-20T02:00:50;102225.50;;;14.44;39.59
30073;BME280;16897;52.422;13.678;2023-05-20T02:04:53;102221.22;;;14.42;39.56
30073;BME280;16897;52.422;13.678;2023-05-20T02:08:55;102220.38;;;14.41;39.58
30073;BME280;16897;52.422;13.678;2023-05-20T02:12:57;102226.59;;;14.40;39.70
30073;BME280;16897;52.422;13.678;2023-05-20T02:16:59;102229.06;;;14.43;39.71
30073;BME280;16897;52.422;13.678;2023-05-20T02:21:02;102214.34;;;14.39;39.78
30073;BME280;16897;52.422;13.678;2023-05-20T02:25:05;102221.31;;;14.40;39.82
30073;BME280;16897;52.422;13.678;2023-05-20T02:29:06;102212.81;;;14.35;39.86
30073;BME280;16897;52.422;13.678;2023-05-20T02:33:08;102218.06;;;14.35;39.94
30073;BME280;16897;52.422;13.678;2023-05-20T02:37:11;102188.97;;;14.21;39.82
30073;BME280;16897;52.422;13.678;2023-05-20T02:41:12;102178.88;;;14.11;40.14
30073;BME280;16897;52.422;13.678;2023-05-20T02:45:16;102224.94;;;14.37;40.12
30073;BME280;16897;52.422;13.678;2023-05-20T02:49:19;102185.84;;;14.12;40.11
30073;BME280;16897;52.422;13.678;2023-05-20T02:53:21;102213.38;;;14.23;40.17
30073;BME280;16897;52.422;13.678;2023-05-20T02:57:23;102219.13;;;14.31;40.19
30073;BME280;16897;52.422;13.678;2023-05-20T03:01:24;102228.41;;;14.38;40.26
30073;BME280;16897;52.422;13.678;2023-05-20T03:05:26;102207.91;;;14.27;40.23
30073;BME280;16897;52.422;13.678;2023-05-20T03:09:27;102237.78;;;14.44;40.41
30073;BME280;16897;52.422;13.678;2023-05-20T03:13:29;102216.38;;;14.34;40.43
30073;BME280;16897;52.422;13.678;2023-05-20T03:17:32;102243.00;;;14.45;40.41
30073;BME280;16897;52.422;13.678;2023-05-20T03:21:34;102236.78;;;14.46;40.39
30073;BME280;16897;52.422;13.678;2023-05-20T03:25:37;102232.63;;;14.42;40.55
30073;BME280;16897;52.422;13.678;2023-05-20T03:29:39;102204.34;;;14.28;40.49
30073;BME280;16897;52.422;13.678;2023-05-20T03:33:41;102231.69;;;14.43;40.50
30073;BME280;16897;52.422;13.678;2023-05-20T03:37:42;102240.03;;;14.53;40.47
30073;BME280;16897;52.422;13.678;2023-05-20T03:41:44;102237.41;;;14.53;40.64
30073;BME280;16897;52.422;13.678;2023-05-20T03:45:47;102232.69;;;14.59;40.67
30073;BME280;16897;52.422;13.678;2023-05-20T03:49:48;102233.63;;;14.58;40.61
30073;BME280;16897;52.422;13.678;2023-05-20T03:53:50;102208.47;;;14.34;40.62
30073;BME280;16897;52.422;13.678;2023-05-20T03:57:52;102237.63;;;14.47;40.68
30073;BME280;16897;52.422;13.678;2023-05-20T04:01:53;102245.16;;;14.56;40.78
30073;BME280;16897;52.422;13.678;2023-05-20T04:05:55;102214.59;;;14.34;40.80
30073;BME280;16897;52.422;13.678;2023-05-20T04:09:57;102234.16;;;14.46;41.03
30073;BME280;16897;52.422;13.678;2023-05-20T04:13:59;102193.78;;;14.30;40.92
30073;BME280;16897;52.422;13.678;2023-05-20T04:18:01;102214.06;;;14.45;41.08
30073;BME280;16897;52.422;13.678;2023-05-20T04:22:03;102217.22;;;14.53;40.94
30073;BME280;16897;52.422;13.678;2023-05-20T04:26:05;102236.09;;;14.62;41.03
30073;BME280;16897;52.422;13.678;2023-05-20T04:30:07;102242.00;;;14.67;41.04
30073;BME280;16897;52.422;13.678;2023-05-20T04:34:14;102237.50;;;14.69;41.10
30073;BME280;16897;52.422;13.678;2023-05-20T04:38:20;102234.97;;;14.67;41.19
30073;BME280;16897;52.422;13.678;2023-05-20T04:42:23;102226.44;;;14.62;41.07
30073;BME280;16897;52.422;13.678;2023-05-20T04:46:26;102229.13;;;14.60;41.22
30073;BME280;16897;52.422;13.678;2023-05-20T04:50:27;102227.28;;;14.63;41.06
30073;BME280;16897;52.422;13.678;2023-05-20T04:54:30;102221.88;;;14.66;41.22
30073;BME280;16897;52.422;13.678;2023-05-20T04:58:33;102190.31;;;14.47;41.20
30073;BME280;16897;52.422;13.678;2023-05-20T05:02:35;102236.28;;;14.76;41.27
30073;BME280;16897;52.422;13.678;2023-05-20T05:06:37;102233.81;;;14.73;41.39
30073;BME280;16897;52.422;13.678;2023-05-20T05:10:39;102233.88;;;14.71;41.41
30073;BME280;16897;52.422;13.678;2023-05-20T05:14:41;102239.13;;;14.71;41.41
30073;BME280;16897;52.422;13.678;2023-05-20T05:18:43;102233.97;;;14.70;41.39
30073;BME280;16897;52.422;13.678;2023-05-20T05:22:45;102244.19;;;14.76;41.44
30073;BME280;16897;52.422;13.678;2023-05-20T05:26:47;102250.22;;;14.78;41.59
30073;BME280;16897;52.422;13.678;2023-05-20T05:30:48;102208.34;;;14.56;41.51
30073;BME280;16897;52.422;13.678;2023-05-20T05:34:50;102233.03;;;14.71;41.60
30073;BME280;16897;52.422;13.678;2023-05-20T05:38:52;102216.63;;;14.66;41.70
30073;BME280;16897;52.422;13.678;2023-05-20T05:42:53;102213.91;;;14.67;41.67
30073;BME280;16897;52.422;13.678;2023-05-20T05:46:56;102232.66;;;14.78;41.79
30073;BME280;16897;52.422;13.678;2023-05-20T05:50:57;102233.34;;;14.82;41.82
30073;BME280;16897;52.422;13.678;2023-05-20T05:55:01;102203.25;;;14.70;41.98
30073;BME280;16897;52.422;13.678;2023-05-20T05:59:03;102232.34;;;14.85;41.98
30073;BME280;16897;52.422;13.678;2023-05-20T06:03:05;102226.19;;;14.86;42.02
30073;BME280;16897;52.422;13.678;2023-05-20T06:07:11;102205.81;;;14.72;42.11
30073;BME280;16897;52.422;13.678;2023-05-20T06:11:13;102212.47;;;14.79;42.27
30073;BME280;16897;52.422;13.678;2023-05-20T06:15:16;102217.28;;;14.88;42.22
30073;BME280;16897;52.422;13.678;2023-05-20T06:19:17;102220.66;;;14.90;42.31
30073;BME280;16897;52.422;13.678;2023-05-20T06:23:19;102219.66;;;14.93;42.38
30073;BME280;16897;52.422;13.678;2023-05-20T06:27:29;102204.03;;;14.90;42.46
30073;BME280;16897;52.422;13.678;2023-05-20T06:31:31;102181.16;;;14.74;42.52
30073;BME280;16897;52.422;13.678;2023-05-20T06:35:33;102211.56;;;14.97;42.55
30073;BME280;16897;52.422;13.678;2023-05-20T06:39:39;102212.97;;;15.04;42.62
30073;BME280;16897;52.422;13.678;2023-05-20T06:43:42;102203.34;;;15.03;42.81
30073;BME280;16897;52.422;13.678;2023-05-20T06:47:52;102221.16;;;15.16;42.85
30073;BME280;16897;52.422;13.678;2023-05-20T06:51:54;102196.00;;;15.10;42.86
30073;BME280;16897;52.422;13.678;2023-05-20T06:55:56;102211.09;;;15.24;42.96
30073;BME280;16897;52.422;13.678;2023-05-20T06:59:57;102192.00;;;15.20;43.02
30073;BME280;16897;52.422;13.678;2023-05-20T07:03:59;102218.22;;;15.39;43.05
30073;BME280;16897;52.422;13.678;2023-05-20T07:08:01;102187.47;;;15.22;43.02
30073;BME280;16897;52.422;13.678;2023-05-20T07:12:02;102198.25;;;15.35;43.09
30073;BME280;16897;52.422;13.678;2023-05-20T07:16:05;102196.84;;;15.45;43.04
30073;BME280;16897;52.422;13.678;2023-05-20T07:20:07;102201.78;;;15.52;43.16
30073;BME280;16897;52.422;13.678;2023-05-20T07:24:10;102164.03;;;15.35;43.23
30073;BME280;16897;52.422;13.678;2023-05-20T07:28:14;102156.06;;;15.37;43.30
30073;BME280;16897;52.422;13.678;2023-05-20T07:32:16;102181.09;;;15.61;43.15
30073;BME280;16897;52.422;13.678;2023-05-20T07:36:18;102173.94;;;15.63;43.37
30073;BME280;16897;52.422;13.678;2023-05-20T07:40:23;102189.81;;;15.79;43.40
30073;BME280;16897;52.422;13.678;2023-05-20T07:44:24;102191.84;;;15.90;43.32
30073;BME280;16897;52.422;13.678;2023-05-20T07:48:27;102189.94;;;15.93;43.27
30073;BME280;16897;52.422;13.678;2023-05-20T07:52:29;102176.75;;;15.93;43.36
30073;BME280;16897;52.422;13.678;2023-05-20T07:56:31;102181.88;;;16.12;43.46
30073;BME280;16897;52.422;13.678;2023-05-20T08:00:34;102168.59;;;16.14;43.72
30073;BME280;16897;52.422;13.678;2023-05-20T08:04:39;102151.50;;;16.21;43.60
30073;BME280;16897;52.422;13.678;2023-05-20T08:08:41;102158.56;;;16.36;43.61
30073;BME280;16897;52.422;13.678;2023-05-20T08:12:50;102168.38;;;16.49;43.70
30073;BME280;16897;52.422;13.678;2023-05-20T08:16:52;102159.44;;;16.51;43.64
30073;BME280;16897;52.422;13.678;2023-05-20T08:20:54;102152.13;;;16.56;43.55
30073;BME280;16897;52.422;13.678;2023-05-20T08:24:56;102166.97;;;16.73;43.52
30073;BME280;16897;52.422;13.678;2023-05-20T08:28:57;102129.06;;;16.60;43.57
30073;BME280;16897;52.422;13.678;2023-05-20T08:32:59;102159.16;;;16.88;43.49
30073;BME280;16897;52.422;13.678;2023-05-20T08:37:03;102158.59;;;16.97;43.57
30073;BME280;16897;52.422;13.678;2023-05-20T08:41:05;102108.09;;;16.73;43.79
30073;BME280;16897;52.422;13.678;2023-05-20T08:45:10;102112.69;;;16.85;43.67
30073;BME280;16897;52.422;13.678;2023-05-20T08:49:12;102147.22;;;17.11;43.86
30073;BME280;16897;52.422;13.678;2023-05-20T08:53:14;102128.47;;;17.15;43.87
30073;BME280;16897;52.422;13.678;2023-05-20T08:57:15;102115.47;;;17.12;43.63
30073;BME280;16897;52.422;13.678;2023-05-20T09:01:16;102091.31;;;17.04;43.73
30073;BME280;16897;52.422;13.678;2023-05-20T09:05:18;102141.97;;;17.39;43.81
30073;BME280;16897;52.422;13.678;2023-05-20T09:09:20;102129.63;;;17.40;43.60
30073;BME280;16897;52.422;13.678;2023-05-20T09:13:22;102139.59;;;17.49;43.74
30073;BME280;16897;52.422;13.678;2023-05-20T09:17:24;102130.91;;;17.47;43.82
30073;BME280;16897;52.422;13.678;2023-05-20T09:21:27;102146.78;;;17.61;43.63
30073;BME280;16897;52.422;13.678;2023-05-20T09:25:28;102121.28;;;17.60;43.85
30073;BME280;16897;52.422;13.678;2023-05-20T09:29:32;102101.59;;;17.52;43.73
30073;BME280;16897;52.422;13.678;2023-05-20T09:33:33;102097.34;;;17.49;43.62
30073;BME280;16897;52.422;13.678;2023-05-20T09:37:36;102095.19;;;17.56;43.97
30073;BME280;16897;52.422;13.678;2023-05-20T09:41:53;102141.31;;;17.79;43.79
30073;BME280;16897;52.422;13.678;2023-05-20T09:45:55;102122.00;;;17.77;43.78
30073;BME280;16897;52.422;13.678;2023-05-20T09:49:59;102123.72;;;17.78;43.93
30073;BME280;16897;52.422;13.678;2023-05-20T09:54:03;102103.84;;;17.72;43.82
30073;BME280;16897;52.422;13.678;2023-05-20T09:58:05;102121.47;;;17.86;43.90
30073;BME280;16897;52.422;13.678;2023-05-20T10:02:09;102100.78;;;17.78;43.99
30073;BME280;16897;52.422;13.678;2023-05-20T10:15:15;102120.75;;;18.11;43.77
30073;BME280;16897;52.422;13.678;2023-05-20T10:19:30;102122.91;;;18.19;44.06
30073;BME280;16897;52.422;13.678;2023-05-20T10:23:32;102115.53;;;18.24;43.95
30073;BME280;16897;52.422;13.678;2023-05-20T10:27:46;102125.28;;;18.36;43.95
30073;BME280;16897;52.422;13.678;2023-05-20T10:31:49;102092.47;;;18.26;44.15
30073;BME280;16897;52.422;13.678;2023-05-20T10:35:51;102081.78;;;18.27;44.13
30073;BME280;16897;52.422;13.678;2023-05-20T10:40:10;102114.25;;;18.56;43.84
30073;BME280;16897;52.422;13.678;2023-05-20T10:44:12;102114.34;;;18.68;44.00
30073;BME280;16897;52.422;13.678;2023-05-20T10:52:21;102096.59;;;18.70;43.72
30073;BME280;16897;52.422;13.678;2023-05-20T10:56:24;102078.38;;;18.65;43.95
30073;BME280;16897;52.422;13.678;2023-05-20T11:00:26;102092.75;;;18.74;44.02
30073;BME280;16897;52.422;13.678;2023-05-20T11:04:29;102088.03;;;18.79;44.02
30073;BME280;16897;52.422;13.678;2023-05-20T11:08:32;102082.13;;;18.88;44.12
30073;BME280;16897;52.422;13.678;2023-05-20T11:12:33;102078.44;;;18.91;44.05
30073;BME280;16897;52.422;13.678;2023-05-20T11:16:35;102071.44;;;18.90;44.07
30073;BME280;16897;52.422;13.678;2023-05-20T11:20:37;102081.63;;;18.96;44.08
30073;BME280;16897;52.422;13.678;2023-05-20T11:24:38;102068.56;;;18.93;44.36
30073;BME280;16897;52.422;13.678;2023-05-20T11:28:40;102063.50;;;19.02;44.09
30073;BME280;16897;52.422;13.678;2023-05-20T11:32:43;102015.53;;;18.94;44.31
30073;BME280;16897;52.422;13.678;2023-05-20T11:36:44;102063.13;;;19.33;44.19
30073;BME280;16897;52.422;13.678;2023-05-20T11:40:53;102059.72;;;19.43;44.27
30073;BME280;16897;52.422;13.678;2023-05-20T11:44:55;102013.69;;;19.20;44.15
30073;BME280;16897;52.422;13.678;2023-05-20T11:48:57;102070.38;;;19.55;44.11
30073;BME280;16897;52.422;13.678;2023-05-20T11:53:01;102043.41;;;19.50;44.47
30073;BME280;16897;52.422;13.678;2023-05-20T11:57:03;102041.25;;;19.55;44.24
30073;BME280;16897;52.422;13.678;2023-05-20T12:01:04;102053.31;;;19.72;44.24
30073;BME280;16897;52.422;13.678;2023-05-20T12:05:06;102038.66;;;19.79;44.40
30073;BME280;16897;52.422;13.678;2023-05-20T12:09:09;102008.59;;;19.67;44.24
30073;BME280;16897;52.422;13.678;2023-05-20T12:13:10;102026.75;;;19.84;44.37
30073;BME280;16897;52.422;13.678;2023-05-20T12:17:13;102021.06;;;20.02;44.28
30073;BME280;16897;52.422;13.678;2023-05-20T12:21:15;102005.41;;;20.10;44.02
30073;BME280;16897;52.422;13.678;2023-05-20T12:25:18;102014.00;;;20.25;44.37
30073;BME280;16897;52.422;13.678;2023-05-20T12:29:20;101992.53;;;20.17;44.28
30073;BME280;16897;52.422;13.678;2023-05-20T12:33:22;102007.03;;;20.35;44.17
30073;BME280;16897;52.422;13.678;2023-05-20T12:37:23;101954.44;;;20.18;44.21
30073;BME280;16897;52.422;13.678;2023-05-20T12:41:25;102002.91;;;20.55;44.33
30073;BME280;16897;52.422;13.678;2023-05-20T12:45:27;102004.13;;;20.62;44.25
30073;BME280;16897;52.422;13.678;2023-05-20T12:49:28;101979.28;;;20.63;44.32
30073;BME280;16897;52.422;13.678;2023-05-20T12:53:29;101950.25;;;20.49;44.21
30073;BME280;16897;52.422;13.678;2023-05-20T12:57:31;101958.75;;;20.65;44.33
30073;BME280;16897;52.422;13.678;2023-05-20T13:01:32;101967.09;;;20.72;44.21
30073;BME280;16897;52.422;13.678;2023-05-20T13:05:35;101969.38;;;20.88;44.45
30073;BME280;16897;52.422;13.678;2023-05-20T13:09:59;101938.13;;;20.91;44.17
30073;BME280;16897;52.422;13.678;2023-05-20T13:14:14;101957.03;;;21.20;44.21
30073;BME280;16897;52.422;13.678;2023-05-20T13:18:16;101902.13;;;20.98;44.14
30073;BME280;16897;52.422;13.678;2023-05-20T13:22:23;101940.59;;;21.38;44.13
30073;BME280;16897;52.422;13.678;2023-05-20T13:26:25;101939.22;;;21.43;43.81
30073;BME280;16897;52.422;13.678;2023-05-20T13:30:27;101936.78;;;21.52;43.87
30073;BME280;16897;52.422;13.678;2023-05-20T13:34:29;101935.44;;;21.57;44.31
30073;BME280;16897;52.422;13.678;2023-05-20T13:38:31;101888.03;;;21.30;44.04
30073;BME280;16897;52.422;13.678;2023-05-20T13:42:32;101915.25;;;21.55;44.27
30073;BME280;16897;52.422;13.678;2023-05-20T13:46:34;101909.78;;;21.68;43.78
30073;BME280;16897;52.422;13.678;2023-05-20T13:50:35;101895.28;;;21.72;43.94
30073;BME280;16897;52.422;13.678;2023-05-20T13:54:37;101911.94;;;21.95;43.92
30073;BME280;16897;52.422;13.678;2023-05-20T13:58:38;101911.44;;;22.01;43.71
30073;BME280;16897;52.422;13.678;2023-05-20T14:02:40;101910.75;;;22.08;43.72
30073;BME280;16897;52.422;13.678;2023-05-20T14:06:42;101893.84;;;22.09;43.66
30073;BME280;16897;52.422;13.678;2023-05-20T14:10:43;101889.94;;;22.14;44.03
30073;BME280;16897;52.422;13.678;2023-05-20T14:14:45;101887.34;;;22.23;43.96
30073;BME280;16897;52.422;13.678;2023-05-20T14:18:46;101866.56;;;22.17;43.61
30073;BME280;16897;52.422;13.678;2023-05-20T14:22:48;101869.19;;;22.28;43.49
30073;BME280;16897;52.422;13.678;2023-05-20T14:26:50;101882.06;;;22.33;43.91
30073;BME280;16897;52.422;13.678;2023-05-20T14:30:51;101868.25;;;22.39;43.58
30073;BME280;16897;52.422;13.678;2023-05-20T14:34:54;101844.97;;;22.31;43.81
30073;BME280;16897;52.422;13.678;2023-05-20T14:38:56;101868.00;;;22.52;43.58
30073;BME280;16897;52.422;13.678;2023-05-20T14:42:57;101868.97;;;22.51;43.60
30073;BME280;16897;52.422;13.678;2023-05-20T14:46:59;101865.09;;;22.65;43.71
30073;BME280;16897;52.422;13.678;2023-05-20T14:51:00;101862.88;;;22.70;43.28
30073;BME280;16897;52.422;13.678;2023-05-20T14:55:01;101845.06;;;22.70;43.27
30073;BME280;16897;52.422;13.678;2023-05-20T14:59:03;101856.91;;;22.87;43.26
30073;BME280;16897;52.422;13.678;2023-05-20T15:03:05;101859.28;;;22.90;43.15
30073;BME280;16897;52.422;13.678;2023-05-20T15:07:06;101827.44;;;22.79;43.28
30073;BME280;16897;52.422;13.678;2023-05-20T15:11:07;101814.53;;;22.84;43.46
30073;BME280;16897;52.422;13.678;2023-05-20T15:15:09;101832.69;;;23.00;43.34
30073;BME280;16897;52.422;13.678;2023-05-20T15:19:11;101835.38;;;23.10;43.52
30073;BME280;16897;52.422;13.678;2023-05-20T15:23:13;101838.44;;;23.15;43.14
30073;BME280;16897;52.422;13.678;2023-05-20T15:27:17;101833.84;;;23.17;43.07
30073;BME280;16897;52.422;13.678;2023-05-20T15:31:19;101841.66;;;23.18;42.94
30073;BME280;16897;52.422;13.678;2023-05-20T15:35:21;101794.09;;;22.94;42.89
30073;BME280;16897;52.422;13.678;2023-05-20T15:39:22;101822.72;;;23.22;43.29
30073;BME280;16897;52.422;13.678;2023-05-20T15:43:24;101826.94;;;23.24;43.07
30073;BME280;16897;52.422;13.678;2023-05-20T15:47:25;101812.50;;;23.17;42.79
30073;BME280;16897;52.422;13.678;2023-05-20T15:51:27;101791.06;;;23.09;42.59
30073;BME280;16897;52.422;13.678;2023-05-20T15:55:28;101806.91;;;23.20;43.11
30073;BME280;16897;52.422;13.678;2023-05-20T15:59:30;101771.28;;;23.02;42.62
30073;BME280;16897;52.422;13.678;2023-05-20T16:03:32;101787.09;;;23.03;42.77
30073;BME280;16897;52.422;13.678;2023-05-20T16:07:33;101793.28;;;23.04;43.00
30073;BME280;16897;52.422;13.678;2023-05-20T16:11:35;101784.25;;;22.95;42.81
30073;BME280;16897;52.422;13.678;2023-05-20T16:15:36;101787.25;;;23.02;42.84
30073;BME280;16897;52.422;13.678;2023-05-20T16:19:38;101761.28;;;22.94;43.00
30073;BME280;16897;52.422;13.678;2023-05-20T16:23:39;101768.28;;;22.95;42.90
30073;BME280;16897;52.422;13.678;2023-05-20T16:27:44;101761.56;;;22.91;42.72
30073;BME280;16897;52.422;13.678;2023-05-20T16:31:46;101730.84;;;22.67;42.53
30073;BME280;16897;52.422;13.678;2023-05-20T16:35:47;101777.38;;;22.92;42.64
30073;BME280;16897;52.422;13.678;2023-05-20T16:39:49;101764.63;;;22.86;42.85
30073;BME280;16897;52.422;13.678;2023-05-20T16:43:51;101768.44;;;22.93;43.01
30073;BME280;16897;52.422;13.678;2023-05-20T16:47:52;101763.09;;;22.93;42.90
30073;BME280;16897;52.422;13.678;2023-05-20T16:51:54;101753.69;;;22.89;42.46
30073;BME280;16897;52.422;13.678;2023-05-20T16:55:55;101729.59;;;22.81;42.70
30073;BME280;16897;52.422;13.678;2023-05-20T16:59:57;101728.91;;;22.79;42.45
30073;BME280;16897;52.422;13.678;2023-05-20T17:03:58;101714.88;;;22.67;42.76
30073;BME280;16897;52.422;13.678;2023-05-20T17:08:00;101754.53;;;22.90;42.67
30073;BME280;16897;52.422;13.678;2023-05-20T17:12:03;101749.22;;;22.90;42.95
30073;BME280;16897;52.422;13.678;2023-05-20T17:16:05;101716.00;;;22.74;42.65
30073;BME280;16897;52.422;13.678;2023-05-20T17:20:06;101754.53;;;22.90;42.65
30073;BME280;16897;52.422;13.678;2023-05-20T17:24:08;101751.03;;;22.89;42.76
30073;BME280;16897;52.422;13.678;2023-05-20T17:28:09;101743.03;;;22.89;42.78
30073;BME280;16897;52.422;13.678;2023-05-20T17:32:11;101725.09;;;22.72;42.40
30073;BME280;16897;52.422;13.678;2023-05-20T17:36:13;101734.22;;;22.79;42.69
30073;BME280;16897;52.422;13.678;2023-05-20T17:40:16;101728.91;;;22.79;42.75
30073;BME280;16897;52.422;13.678;2023-05-20T17:48:58;101731.13;;;22.84;42.35
30073;BME280;16897;52.422;13.678;2023-05-20T17:52:59;101738.41;;;22.82;42.78
30073;BME280;16897;52.422;13.678;2023-05-20T17:57:01;101737.16;;;22.76;42.77
30073;BME280;16897;52.422;13.678;2023-05-20T18:01:03;101741.94;;;22.82;42.51
30073;BME280;16897;52.422;13.678;2023-05-20T18:05:05;101744.72;;;22.81;42.60
30073;BME280;16897;52.422;13.678;2023-05-20T18:09:06;101746.69;;;22.79;42.79
30073;BME280;16897;52.422;13.678;2023-05-20T18:13:08;101705.19;;;22.57;42.29
30073;BME280;16897;52.422;13.678;2023-05-20T18:17:10;101743.06;;;22.80;42.33
30073;BME280;16897;52.422;13.678;2023-05-20T18:21:11;101721.03;;;22.68;42.30
30073;BME280;16897;52.422;13.678;2023-05-20T18:25:13;101728.59;;;22.72;42.59
30073;BME280;16897;52.422;13.678;2023-05-20T18:29:15;101715.56;;;22.60;42.26
30073;BME280;16897;52.422;13.678;2023-05-20T18:33:17;101729.00;;;22.68;42.37
30073;BME280;16897;52.422;13.678;2023-05-20T18:37:18;101735.34;;;22.67;42.66
30073;BME280;16897;52.422;13.678;2023-05-20T18:41:19;101738.00;;;22.67;42.69
30073;BME280;16897;52.422;13.678;2023-05-20T18:45:22;101752.31;;;22.66;42.54
30073;BME280;16897;52.422;13.678;2023-05-20T18:49:24;101746.13;;;22.56;42.28
30073;BME280;16897;52.422;13.678;2023-05-20T18:53:26;101741.44;;;22.38;42.52
30073;BME280;16897;52.422;13.678;2023-05-20T18:57:28;101749.16;;;22.41;42.78
30073;BME280;16897;52.422;13.678;2023-05-20T19:01:29;101710.13;;;22.11;42.51
30073;BME280;16897;52.422;13.678;2023-05-20T19:05:31;101728.63;;;22.13;42.44
30073;BME280;16897;52.422;13.678;2023-05-20T19:09:32;101768.31;;;22.25;42.49
30073;BME280;16897;52.422;13.678;2023-05-20T19:13:34;101753.56;;;22.12;42.46
30073;BME280;16897;52.422;13.678;2023-05-20T19:17:36;101757.44;;;22.07;42.27
30073;BME280;16897;52.422;13.678;2023-05-20T19:21:37;101760.81;;;22.09;42.39
30073;BME280;16897;52.422;13.678;2023-05-20T19:25:42;101769.31;;;22.03;42.69
30073;BME280;16897;52.422;13.678;2023-05-20T19:29:43;101752.31;;;21.85;42.71
30073;BME280;16897;52.422;13.678;2023-05-20T19:33:51;101773.16;;;21.90;42.52
30073;BME280;16897;52.422;13.678;2023-05-20T19:37:53;101785.25;;;21.94;42.23
30073;BME280;16897;52.422;13.678;2023-05-20T19:41:54;101790.00;;;21.90;42.38
30073;BME280;16897;52.422;13.678;2023-05-20T19:45:56;101780.13;;;21.81;42.50
30073;BME280;16897;52.422;13.678;2023-05-20T19:49:57;101788.38;;;21.78;42.53
30073;BME280;16897;52.422;13.678;2023-05-20T19:53:59;101752.09;;;21.46;42.49
30073;BME280;16897;52.422;13.678;2023-05-20T19:58:11;101790.66;;;21.61;42.48
30073;BME280;16897;52.422;13.678;2023-05-20T20:02:16;101792.88;;;21.56;42.57
30073;BME280;16897;52.422;13.678;2023-05-20T20:06:18;101790.41;;;21.43;42.65
30073;BME280;16897;52.422;13.678;2023-05-20T20:10:20;101761.28;;;21.21;42.65
30073;BME280;16897;52.422;13.678;2023-05-20T20:14:21;101784.66;;;21.27;42.39
30073;BME280;16897;52.422;13.678;2023-05-20T20:18:23;101779.28;;;21.17;42.67
30073;BME280;16897;52.422;13.678;2023-05-20T20:22:25;101784.59;;;21.17;42.45
30073;BME280;16897;52.422;13.678;2023-05-20T20:26:29;101778.47;;;21.06;42.26
30073;BME280;16897;52.422;13.678;2023-05-20T20:30:30;101754.78;;;20.82;42.52
30073;BME280;16897;52.422;13.678;2023-05-20T20:34:32;101779.88;;;20.89;42.44
30073;BME280;16897;52.422;13.678;2023-05-20T20:38:34;101783.78;;;20.85;42.84
30073;BME280;16897;52.422;13.678;2023-05-20T20:42:38;101776.16;;;20.80;42.48
30073;BME280;16897;52.422;13.678;2023-05-20T20:46:41;101780.16;;;20.74;42.95
30073;BME280;16897;52.422;13.678;2023-05-20T20:50:44;101765.94;;;20.64;42.79
30073;BME280;16897;52.422;13.678;2023-05-20T20:54:47;101759.44;;;20.57;42.72
30073;BME280;16897;52.422;13.678;2023-05-20T20:58:49;101776.00;;;20.61;42.64
30073;BME280;16897;52.422;13.678;2023-05-20T21:02:54;101783.94;;;20.61;42.85
30073;BME280;16897;52.422;13.678;2023-05-20T21:06:55;101761.16;;;20.47;43.02
30073;BME280;16897;52.422;13.678;2023-05-20T21:10:57;101779.34;;;20.51;43.06